sensor_id;sensor_type;location;lat;lon;timestamp;temperature;humidity
38239;DHT22;24035;48.900;9.188;2023-10-31T00:02:17;11.70;1.00
38239;DHT22;24035;48.900;9.188;2023-10-31T00:04:43;11.80;1.00
38239;DHT22;24035;48.900;9.188;2023-10-31T00:07:08;11.70;1.00
38239;DHT22;24035;48.900;9.188;2023-10-31T00:09:34;11.70;1.00
38239;DHT22;24035;48.900;9.188;2023-10-31T00:12:00;11.80;1.00
38239;DHT22;24035;48.900;9.188;2023-10-31T00:14:26;11.80;1.00
38239;DHT22;24035;48.900;9.188;2023-10-31T00:16:52;11.70;99.90
38239;DHT22;24035;48.900;9.188;2023-10-31T00:19:18;11.70;1.00
38239;DHT22;24035;48.900;9.188;2023-10-31T00:21:44;11.60;1.00
38239;DHT22;24035;48.900;9.188;2023-10-31T00:24:10;11.60;99.90
38239;DHT22;24035;48.900;9.188;2023-10-31T00:26:35;11.60;99.90
38239;DHT22;24035;48.900;9.188;2023-10-31T00:29:01;11.70;99.90
38239;DHT22;24035;48.900;9.188;2023-10-31T00:31:26;11.60;1.00
38239;DHT22;24035;48.900;9.188;2023-10-31T00:33:52;11.60;1.00
38239;DHT22;24035;48.900;9.188;2023-10-31T00:36:18;11.60;99.90
38239;DHT22;24035;48.900;9.188;2023-10-31T00:38:44;11.60;1.00
38239;DHT22;24035;48.900;9.188;2023-10-31T00:41:09;11.50;1.00
38239;DHT22;24035;48.900;9.188;2023-10-31T00:43:35;11.40;1.00
38239;DHT22;24035;48.900;9.188;2023-10-31T00:46:03;11.40;99.90
38239;DHT22;24035;48.900;9.188;2023-10-31T00:48:29;11.40;1.00
38239;DHT22;24035;48.900;9.188;2023-10-31T00:50:54;11.30;1.00
38239;DHT22;24035;48.900;9.188;2023-10-31T00:53:20;11.30;1.00
38239;DHT22;24035;48.900;9.188;2023-10-31T00:55:46;11.20;1.00
38239;DHT22;24035;48.900;9.188;2023-10-31T00:58:12;11.20;71.00
38239;DHT22;24035;48.900;9.188;2023-10-31T01:00:38;11.20;1.00
38239;DHT22;24035;48.900;9.188;2023-10-31T01:03:04;11.10;1.00
38239;DHT22;24035;48.900;9.188;2023-10-31T01:05:30;11.10;1.00
38239;DHT22;24035;48.900;9.188;2023-10-31T01:07:55;11.00;1.00
38239;DHT22;24035;48.900;9.188;2023-10-31T01:10:21;11.00;1.00
38239;DHT22;24035;48.900;9.188;2023-10-31T01:12:48;11.00;1.00
38239;DHT22;24035;48.900;9.188;2023-10-31T01:15:13;11.00;1.00
38239;DHT22;24035;48.900;9.188;2023-10-31T01:17:39;11.00;1.00
38239;DHT22;24035;48.900;9.188;2023-10-31T01:20:06;10.90;1.00
38239;DHT22;24035;48.900;9.188;2023-10-31T01:22:32;10.90;99.90
38239;DHT22;24035;48.900;9.188;2023-10-31T01:24:57;10.90;99.90
38239;DHT22;24035;48.900;9.188;2023-10-31T01:27:23;10.80;99.90
38239;DHT22;24035;48.900;9.188;2023-10-31T01:29:49;10.70;99.90
38239;DHT22;24035;48.900;9.188;2023-10-31T01:32:15;10.50;1.00
38239;DHT22;24035;48.900;9.188;2023-10-31T01:34:41;10.40;1.00
38239;DHT22;24035;48.900;9.188;2023-10-31T01:37:06;10.40;1.00
38239;DHT22;24035;48.900;9.188;2023-10-31T01:39:33;10.40;1.00
38239;DHT22;24035;48.900;9.188;2023-10-31T01:42:01;10.30;1.00
38239;DHT22;24035;48.900;9.188;2023-10-31T01:44:26;10.30;1.00
38239;DHT22;24035;48.900;9.188;2023-10-31T01:46:52;10.20;1.00
38239;DHT22;24035;48.900;9.188;2023-10-31T01:49:18;10.20;93.30
38239;DHT22;24035;48.900;9.188;2023-10-31T01:51:45;10.30;1.00
38239;DHT22;24035;48.900;9.188;2023-10-31T01:54:12;10.20;99.90
38239;DHT22;24035;48.900;9.188;2023-10-31T01:56:39;10.20;99.90
38239;DHT22;24035;48.900;9.188;2023-10-31T01:59:05;10.20;1.00
38239;DHT22;24035;48.900;9.188;2023-10-31T02:01:32;10.30;1.00
38239;DHT22;24035;48.900;9.188;2023-10-31T02:04:00;10.40;99.90
38239;DHT22;24035;48.900;9.188;2023-10-31T02:06:28;10.40;1.00
38239;DHT22;24035;48.900;9.188;2023-10-31T02:08:56;10.40;1.00
38239;DHT22;24035;48.900;9.188;2023-10-31T02:11:22;10.50;1.00
38239;DHT22;24035;48.900;9.188;2023-10-31T02:13:48;10.50;99.90
38239;DHT22;24035;48.900;9.188;2023-10-31T02:16:14;10.50;99.90
38239;DHT22;24035;48.900;9.188;2023-10-31T02:18:40;10.50;99.90
38239;DHT22;24035;48.900;9.188;2023-10-31T02:21:05;10.60;1.00
38239;DHT22;24035;48.900;9.188;2023-10-31T02:23:31;10.60;1.00
38239;DHT22;24035;48.900;9.188;2023-10-31T02:25:57;10.50;1.00
38239;DHT22;24035;48.900;9.188;2023-10-31T02:28:23;10.50;1.00
38239;DHT22;24035;48.900;9.188;2023-10-31T02:30:53;10.50;38.90
38239;DHT22;24035;48.900;9.188;2023-10-31T02:33:20;10.50;82.40
38239;DHT22;24035;48.900;9.188;2023-10-31T02:35:46;10.40;99.90
38239;DHT22;24035;48.900;9.188;2023-10-31T02:38:12;10.40;99.90
38239;DHT22;24035;48.900;9.188;2023-10-31T02:40:37;10.30;1.00
38239;DHT22;24035;48.900;9.188;2023-10-31T02:43:03;10.20;1.00
38239;DHT22;24035;48.900;9.188;2023-10-31T02:45:29;10.20;13.60
38239;DHT22;24035;48.900;9.188;2023-10-31T02:47:55;10.00;99.90
38239;DHT22;24035;48.900;9.188;2023-10-31T02:50:21;10.10;1.00
38239;DHT22;24035;48.900;9.188;2023-10-31T02:52:48;10.00;1.00
38239;DHT22;24035;48.900;9.188;2023-10-31T02:55:13;10.00;1.00
38239;DHT22;24035;48.900;9.188;2023-10-31T02:57:39;10.00;1.00
38239;DHT22;24035;48.900;9.188;2023-10-31T03:00:05;10.00;1.00
38239;DHT22;24035;48.900;9.188;2023-10-31T03:02:31;10.00;14.60
38239;DHT22;24035;48.900;9.188;2023-10-31T03:04:57;10.00;93.00
38239;DHT22;24035;48.900;9.188;2023-10-31T03:07:23;9.90;99.90
38239;DHT22;24035;48.900;9.188;2023-10-31T03:09:49;9.80;99.90
38239;DHT22;24035;48.900;9.188;2023-10-31T03:12:15;9.80;1.00
38239;DHT22;24035;48.900;9.188;2023-10-31T03:14:41;9.90;1.00
38239;DHT22;24035;48.900;9.188;2023-10-31T03:17:07;9.90;99.90
38239;DHT22;24035;48.900;9.188;2023-10-31T03:19:32;10.00;4.50
38239;DHT22;24035;48.900;9.188;2023-10-31T03:21:58;10.10;99.90
38239;DHT22;24035;48.900;9.188;2023-10-31T03:24:24;10.10;99.90
38239;DHT22;24035;48.900;9.188;2023-10-31T03:26:49;10.20;99.90
38239;DHT22;24035;48.900;9.188;2023-10-31T03:29:15;10.20;99.90
38239;DHT22;24035;48.900;9.188;2023-10-31T03:31:41;10.30;99.90
38239;DHT22;24035;48.900;9.188;2023-10-31T03:34:06;10.40;1.00
38239;DHT22;24035;48.900;9.188;2023-10-31T03:36:32;10.50;1.00
38239;DHT22;24035;48.900;9.188;2023-10-31T03:38:58;10.50;99.90
38239;DHT22;24035;48.900;9.188;2023-10-31T03:41:24;10.60;99.90
38239;DHT22;24035;48.900;9.188;2023-10-31T03:43:50;10.60;99.90
38239;DHT22;24035;48.900;9.188;2023-10-31T03:46:15;10.60;99.90
38239;DHT22;24035;48.900;9.188;2023-10-31T03:48:42;10.60;99.90
38239;DHT22;24035;48.900;9.188;2023-10-31T03:51:07;10.60;1.00
38239;DHT22;24035;48.900;9.188;2023-10-31T03:53:33;10.70;1.00
38239;DHT22;24035;48.900;9.188;2023-10-31T03:55:59;10.70;99.90
38239;DHT22;24035;48.900;9.188;2023-10-31T03:58:25;10.70;1.00
38239;DHT22;24035;48.900;9.188;2023-10-31T04:00:51;10.70;1.00
38239;DHT22;24035;48.900;9.188;2023-10-31T04:03:17;10.70;1.00
38239;DHT22;24035;48.900;9.188;2023-10-31T04:05:43;10.80;99.90
38239;DHT22;24035;48.900;9.188;2023-10-31T04:08:08;10.80;99.90
38239;DHT22;24035;48.900;9.188;2023-10-31T04:10:34;10.70;99.90
38239;DHT22;24035;48.900;9.188;2023-10-31T04:13:00;10.80;99.90
38239;DHT22;24035;48.900;9.188;2023-10-31T04:15:26;10.80;1.00
38239;DHT22;24035;48.900;9.188;2023-10-31T04:17:51;10.80;1.00
38239;DHT22;24035;48.900;9.188;2023-10-31T04:20:17;10.80;1.00
38239;DHT22;24035;48.900;9.188;2023-10-31T04:22:43;10.80;1.00
38239;DHT22;24035;48.900;9.188;2023-10-31T04:25:09;10.80;1.00
38239;DHT22;24035;48.900;9.188;2023-10-31T04:27:35;10.70;1.00
38239;DHT22;24035;48.900;9.188;2023-10-31T04:30:01;10.70;1.00
38239;DHT22;24035;48.900;9.188;2023-10-31T04:32:27;10.60;1.00
38239;DHT22;24035;48.900;9.188;2023-10-31T04:34:53;10.60;1.00
38239;DHT22;24035;48.900;9.188;2023-10-31T04:37:19;10.50;1.00
38239;DHT22;24035;48.900;9.188;2023-10-31T04:39:44;10.50;1.00
38239;DHT22;24035;48.900;9.188;2023-10-31T04:42:10;10.50;1.00
38239;DHT22;24035;48.900;9.188;2023-10-31T04:44:35;10.40;1.00
38239;DHT22;24035;48.900;9.188;2023-10-31T04:47:01;10.40;23.90
38239;DHT22;24035;48.900;9.188;2023-10-31T04:49:27;10.30;99.90
38239;DHT22;24035;48.900;9.188;2023-10-31T04:51:53;10.30;99.90
38239;DHT22;24035;48.900;9.188;2023-10-31T04:54:18;10.20;1.00
38239;DHT22;24035;48.900;9.188;2023-10-31T04:56:44;10.20;1.00
38239;DHT22;24035;48.900;9.188;2023-10-31T04:59:10;10.20;1.00
38239;DHT22;24035;48.900;9.188;2023-10-31T05:01:35;10.10;73.40
38239;DHT22;24035;48.900;9.188;2023-10-31T05:04:01;10.10;77.70
38239;DHT22;24035;48.900;9.188;2023-10-31T05:06:27;10.10;91.30
38239;DHT22;24035;48.900;9.188;2023-10-31T05:08:52;10.00;1.00
38239;DHT22;24035;48.900;9.188;2023-10-31T05:11:18;10.00;1.00
38239;DHT22;24035;48.900;9.188;2023-10-31T05:13:45;10.00;1.00
38239;DHT22;24035;48.900;9.188;2023-10-31T05:16:11;10.00;1.00
38239;DHT22;24035;48.900;9.188;2023-10-31T05:18:38;10.00;99.90
38239;DHT22;24035;48.900;9.188;2023-10-31T05:21:04;9.90;1.00
38239;DHT22;24035;48.900;9.188;2023-10-31T05:23:30;9.80;1.00
38239;DHT22;24035;48.900;9.188;2023-10-31T05:25:55;9.80;1.00
38239;DHT22;24035;48.900;9.188;2023-10-31T05:28:21;9.80;98.20
38239;DHT22;24035;48.900;9.188;2023-10-31T05:30:47;9.80;99.90
38239;DHT22;24035;48.900;9.188;2023-10-31T05:33:15;9.90;99.90
38239;DHT22;24035;48.900;9.188;2023-10-31T05:35:41;9.90;99.90
38239;DHT22;24035;48.900;9.188;2023-10-31T05:38:07;9.80;99.90
38239;DHT22;24035;48.900;9.188;2023-10-31T05:40:33;9.80;99.90
38239;DHT22;24035;48.900;9.188;2023-10-31T05:43:01;9.70;99.90
38239;DHT22;24035;48.900;9.188;2023-10-31T05:45:30;9.70;99.90
38239;DHT22;24035;48.900;9.188;2023-10-31T05:47:56;9.70;1.00
38239;DHT22;24035;48.900;9.188;2023-10-31T05:50:21;9.70;1.00
38239;DHT22;24035;48.900;9.188;2023-10-31T05:52:47;9.70;51.80
38239;DHT22;24035;48.900;9.188;2023-10-31T05:55:13;9.80;1.00
38239;DHT22;24035;48.900;9.188;2023-10-31T05:57:39;9.80;1.00
38239;DHT22;24035;48.900;9.188;2023-10-31T06:00:06;9.80;1.00
38239;DHT22;24035;48.900;9.188;2023-10-31T06:02:33;9.90;1.00
38239;DHT22;24035;48.900;9.188;2023-10-31T06:04:59;9.90;1.00
38239;DHT22;24035;48.900;9.188;2023-10-31T06:07:25;9.90;1.00
38239;DHT22;24035;48.900;9.188;2023-10-31T06:09:51;10.00;99.90
38239;DHT22;24035;48.900;9.188;2023-10-31T06:12:17;10.00;99.90
38239;DHT22;24035;48.900;9.188;2023-10-31T06:14:43;10.00;99.90
38239;DHT22;24035;48.900;9.188;2023-10-31T06:17:09;10.00;99.90
38239;DHT22;24035;48.900;9.188;2023-10-31T06:19:38;10.00;99.90
38239;DHT22;24035;48.900;9.188;2023-10-31T06:22:03;10.00;99.90
38239;DHT22;24035;48.900;9.188;2023-10-31T06:24:29;10.00;99.90
38239;DHT22;24035;48.900;9.188;2023-10-31T06:26:55;10.00;99.90
38239;DHT22;24035;48.900;9.188;2023-10-31T06:29:21;9.90;99.90
38239;DHT22;24035;48.900;9.188;2023-10-31T06:31:46;9.90;99.90
38239;DHT22;24035;48.900;9.188;2023-10-31T06:34:14;10.00;99.90
38239;DHT22;24035;48.900;9.188;2023-10-31T06:36:40;10.00;99.90
38239;DHT22;24035;48.900;9.188;2023-10-31T06:39:05;10.10;64.80
38239;DHT22;24035;48.900;9.188;2023-10-31T06:41:31;10.10;1.00
38239;DHT22;24035;48.900;9.188;2023-10-31T06:43:57;10.20;1.00
38239;DHT22;24035;48.900;9.188;2023-10-31T06:46:22;10.30;1.00
38239;DHT22;24035;48.900;9.188;2023-10-31T06:48:48;10.40;99.90
38239;DHT22;24035;48.900;9.188;2023-10-31T06:51:14;10.40;1.00
38239;DHT22;24035;48.900;9.188;2023-10-31T06:53:39;10.50;1.00
38239;DHT22;24035;48.900;9.188;2023-10-31T06:56:05;10.60;1.00
38239;DHT22;24035;48.900;9.188;2023-10-31T06:58:33;10.70;1.00
38239;DHT22;24035;48.900;9.188;2023-10-31T07:00:59;10.70;1.00
38239;DHT22;24035;48.900;9.188;2023-10-31T07:03:25;10.80;1.00
38239;DHT22;24035;48.900;9.188;2023-10-31T07:05:51;10.80;1.00
38239;DHT22;24035;48.900;9.188;2023-10-31T07:08:18;10.90;1.00
38239;DHT22;24035;48.900;9.188;2023-10-31T07:10:43;11.00;1.00
38239;DHT22;24035;48.900;9.188;2023-10-31T07:13:09;11.00;1.00
38239;DHT22;24035;48.900;9.188;2023-10-31T07:15:35;11.00;1.00
38239;DHT22;24035;48.900;9.188;2023-10-31T07:18:06;11.10;1.00
38239;DHT22;24035;48.900;9.188;2023-10-31T07:20:34;11.10;1.00
38239;DHT22;24035;48.900;9.188;2023-10-31T07:23:00;11.00;1.00
38239;DHT22;24035;48.900;9.188;2023-10-31T07:25:26;11.10;1.00
38239;DHT22;24035;48.900;9.188;2023-10-31T07:27:51;11.20;1.00
38239;DHT22;24035;48.900;9.188;2023-10-31T07:30:17;11.10;1.00
38239;DHT22;24035;48.900;9.188;2023-10-31T07:32:43;11.20;1.00
38239;DHT22;24035;48.900;9.188;2023-10-31T07:35:09;11.20;1.00
38239;DHT22;24035;48.900;9.188;2023-10-31T07:37:36;11.20;46.50
38239;DHT22;24035;48.900;9.188;2023-10-31T07:40:02;11.30;4.40
38239;DHT22;24035;48.900;9.188;2023-10-31T07:42:29;11.30;1.00
38239;DHT22;24035;48.900;9.188;2023-10-31T07:44:55;11.40;1.00
38239;DHT22;24035;48.900;9.188;2023-10-31T07:47:21;11.40;1.00
38239;DHT22;24035;48.900;9.188;2023-10-31T07:49:47;11.60;1.00
38239;DHT22;24035;48.900;9.188;2023-10-31T07:52:14;11.70;1.00
38239;DHT22;24035;48.900;9.188;2023-10-31T07:54:40;11.80;1.00
38239;DHT22;24035;48.900;9.188;2023-10-31T07:57:06;11.90;1.00
38239;DHT22;24035;48.900;9.188;2023-10-31T07:59:35;11.90;1.00
38239;DHT22;24035;48.900;9.188;2023-10-31T08:02:00;12.10;1.00
38239;DHT22;24035;48.900;9.188;2023-10-31T08:04:26;12.10;1.00
38239;DHT22;24035;48.900;9.188;2023-10-31T08:06:53;12.30;1.00
38239;DHT22;24035;48.900;9.188;2023-10-31T08:09:19;12.30;1.00
38239;DHT22;24035;48.900;9.188;2023-10-31T08:11:45;12.20;1.00
38239;DHT22;24035;48.900;9.188;2023-10-31T08:14:10;12.20;1.00
38239;DHT22;24035;48.900;9.188;2023-10-31T08:16:36;12.40;1.00
38239;DHT22;24035;48.900;9.188;2023-10-31T08:19:02;12.30;99.90
38239;DHT22;24035;48.900;9.188;2023-10-31T08:21:28;12.30;1.00
38239;DHT22;24035;48.900;9.188;2023-10-31T08:24:02;12.40;1.00
38239;DHT22;24035;48.900;9.188;2023-10-31T08:26:30;12.40;1.00
38239;DHT22;24035;48.900;9.188;2023-10-31T08:28:56;12.50;99.90
38239;DHT22;24035;48.900;9.188;2023-10-31T08:31:22;12.40;1.00
38239;DHT22;24035;48.900;9.188;2023-10-31T08:33:48;12.60;99.90
38239;DHT22;24035;48.900;9.188;2023-10-31T08:36:14;12.70;99.90
38239;DHT22;24035;48.900;9.188;2023-10-31T08:38:40;12.90;99.90
38239;DHT22;24035;48.900;9.188;2023-10-31T08:41:05;13.00;99.90
38239;DHT22;24035;48.900;9.188;2023-10-31T08:43:31;13.20;99.90
38239;DHT22;24035;48.900;9.188;2023-10-31T08:45:57;13.20;99.90
38239;DHT22;24035;48.900;9.188;2023-10-31T08:48:23;13.20;99.90
38239;DHT22;24035;48.900;9.188;2023-10-31T08:50:49;13.20;99.90
38239;DHT22;24035;48.900;9.188;2023-10-31T08:53:14;13.20;99.90
38239;DHT22;24035;48.900;9.188;2023-10-31T08:55:40;13.20;99.00
38239;DHT22;24035;48.900;9.188;2023-10-31T08:58:11;13.20;14.90
38239;DHT22;24035;48.900;9.188;2023-10-31T09:00:36;13.20;49.60
38239;DHT22;24035;48.900;9.188;2023-10-31T09:03:02;13.30;99.90
38239;DHT22;24035;48.900;9.188;2023-10-31T09:05:28;13.40;17.60
38239;DHT22;24035;48.900;9.188;2023-10-31T09:07:53;13.50;1.00
38239;DHT22;24035;48.900;9.188;2023-10-31T09:10:19;13.50;1.00
38239;DHT22;24035;48.900;9.188;2023-10-31T09:12:46;13.70;1.00
38239;DHT22;24035;48.900;9.188;2023-10-31T09:15:12;13.80;1.00
38239;DHT22;24035;48.900;9.188;2023-10-31T09:17:38;14.00;1.00
38239;DHT22;24035;48.900;9.188;2023-10-31T09:20:04;13.90;1.00
38239;DHT22;24035;48.900;9.188;2023-10-31T09:22:31;13.90;1.00
38239;DHT22;24035;48.900;9.188;2023-10-31T09:24:56;13.80;1.00
38239;DHT22;24035;48.900;9.188;2023-10-31T09:27:22;13.60;1.00
38239;DHT22;24035;48.900;9.188;2023-10-31T09:29:48;13.70;1.00
38239;DHT22;24035;48.900;9.188;2023-10-31T09:32:15;13.80;1.00
38239;DHT22;24035;48.900;9.188;2023-10-31T09:34:40;14.00;1.00
38239;DHT22;24035;48.900;9.188;2023-10-31T09:37:06;14.00;1.00
38239;DHT22;24035;48.900;9.188;2023-10-31T09:39:32;14.00;1.00
38239;DHT22;24035;48.900;9.188;2023-10-31T09:41:57;14.00;1.00
38239;DHT22;24035;48.900;9.188;2023-10-31T09:44:23;13.80;1.00
38239;DHT22;24035;48.900;9.188;2023-10-31T09:46:51;13.70;1.00
38239;DHT22;24035;48.900;9.188;2023-10-31T09:49:17;13.80;1.00
38239;DHT22;24035;48.900;9.188;2023-10-31T09:51:43;13.80;1.00
38239;DHT22;24035;48.900;9.188;2023-10-31T09:54:12;13.70;1.00
38239;DHT22;24035;48.900;9.188;2023-10-31T09:56:41;13.70;1.00
38239;DHT22;24035;48.900;9.188;2023-10-31T09:59:09;13.90;1.00
38239;DHT22;24035;48.900;9.188;2023-10-31T10:01:35;14.00;1.00
38239;DHT22;24035;48.900;9.188;2023-10-31T10:04:01;14.10;1.00
38239;DHT22;24035;48.900;9.188;2023-10-31T10:06:27;14.20;1.00
38239;DHT22;24035;48.900;9.188;2023-10-31T10:08:54;14.10;1.00
38239;DHT22;24035;48.900;9.188;2023-10-31T10:11:21;14.10;1.00
38239;DHT22;24035;48.900;9.188;2023-10-31T10:13:47;14.20;1.00
38239;DHT22;24035;48.900;9.188;2023-10-31T10:16:28;14.10;1.00
38239;DHT22;24035;48.900;9.188;2023-10-31T10:18:54;14.00;1.00
38239;DHT22;24035;48.900;9.188;2023-10-31T10:21:20;14.20;1.00
38239;DHT22;24035;48.900;9.188;2023-10-31T10:23:46;14.20;1.00
38239;DHT22;24035;48.900;9.188;2023-10-31T10:26:14;14.40;1.00
38239;DHT22;24035;48.900;9.188;2023-10-31T10:28:41;14.40;1.00
38239;DHT22;24035;48.900;9.188;2023-10-31T10:31:06;14.40;1.00
38239;DHT22;24035;48.900;9.188;2023-10-31T10:33:34;14.30;1.00
38239;DHT22;24035;48.900;9.188;2023-10-31T10:36:00;14.30;1.00
38239;DHT22;24035;48.900;9.188;2023-10-31T10:38:28;14.30;1.00
38239;DHT22;24035;48.900;9.188;2023-10-31T10:40:56;14.50;1.00
38239;DHT22;24035;48.900;9.188;2023-10-31T10:43:24;14.30;1.00
38239;DHT22;24035;48.900;9.188;2023-10-31T10:45:55;14.30;1.00
38239;DHT22;24035;48.900;9.188;2023-10-31T10:48:22;14.30;1.00
38239;DHT22;24035;48.900;9.188;2023-10-31T10:50:59;14.30;1.00
38239;DHT22;24035;48.900;9.188;2023-10-31T10:53:30;14.50;1.00
38239;DHT22;24035;48.900;9.188;2023-10-31T10:56:09;15.00;1.00
38239;DHT22;24035;48.900;9.188;2023-10-31T10:58:44;15.10;1.00
38239;DHT22;24035;48.900;9.188;2023-10-31T11:01:16;15.10;99.90
38239;DHT22;24035;48.900;9.188;2023-10-31T11:03:45;14.90;99.90
38239;DHT22;24035;48.900;9.188;2023-10-31T11:06:12;14.90;99.90
38239;DHT22;24035;48.900;9.188;2023-10-31T11:08:38;14.80;99.90
38239;DHT22;24035;48.900;9.188;2023-10-31T11:11:05;14.70;99.90
38239;DHT22;24035;48.900;9.188;2023-10-31T11:13:31;14.70;1.00
38239;DHT22;24035;48.900;9.188;2023-10-31T11:16:04;14.60;1.00
38239;DHT22;24035;48.900;9.188;2023-10-31T11:18:32;14.60;1.00
38239;DHT22;24035;48.900;9.188;2023-10-31T11:20:58;14.60;1.00
38239;DHT22;24035;48.900;9.188;2023-10-31T11:23:24;14.60;1.00
38239;DHT22;24035;48.900;9.188;2023-10-31T11:25:50;14.50;1.00
38239;DHT22;24035;48.900;9.188;2023-10-31T11:28:19;14.50;1.00
38239;DHT22;24035;48.900;9.188;2023-10-31T11:30:48;14.60;1.00
38239;DHT22;24035;48.900;9.188;2023-10-31T11:33:19;14.70;1.00
38239;DHT22;24035;48.900;9.188;2023-10-31T11:36:03;15.00;1.00
38239;DHT22;24035;48.900;9.188;2023-10-31T11:38:34;15.10;1.00
38239;DHT22;24035;48.900;9.188;2023-10-31T11:41:02;15.10;99.90
38239;DHT22;24035;48.900;9.188;2023-10-31T11:46:18;15.00;99.90
38239;DHT22;24035;48.900;9.188;2023-10-31T11:48:46;14.90;99.90
38239;DHT22;24035;48.900;9.188;2023-10-31T11:51:16;14.80;99.90
38239;DHT22;24035;48.900;9.188;2023-10-31T11:53:43;14.60;1.00
38239;DHT22;24035;48.900;9.188;2023-10-31T11:56:10;14.50;1.00
38239;DHT22;24035;48.900;9.188;2023-10-31T11:58:37;14.50;1.00
38239;DHT22;24035;48.900;9.188;2023-10-31T12:01:05;14.30;1.00
38239;DHT22;24035;48.900;9.188;2023-10-31T12:03:41;14.30;1.00
38239;DHT22;24035;48.900;9.188;2023-10-31T12:06:08;14.30;1.00
38239;DHT22;24035;48.900;9.188;2023-10-31T12:08:40;14.30;1.00
38239;DHT22;24035;48.900;9.188;2023-10-31T12:11:13;14.30;1.00
38239;DHT22;24035;48.900;9.188;2023-10-31T12:13:50;14.40;1.00
38239;DHT22;24035;48.900;9.188;2023-10-31T12:16:16;14.50;1.00
38239;DHT22;24035;48.900;9.188;2023-10-31T12:18:42;14.50;1.00
38239;DHT22;24035;48.900;9.188;2023-10-31T12:21:08;14.60;1.00
38239;DHT22;24035;48.900;9.188;2023-10-31T12:23:36;14.60;1.00
38239;DHT22;24035;48.900;9.188;2023-10-31T12:26:02;14.60;1.00
38239;DHT22;24035;48.900;9.188;2023-10-31T12:28:28;14.90;1.00
38239;DHT22;24035;48.900;9.188;2023-10-31T12:30:54;15.10;1.00
38239;DHT22;24035;48.900;9.188;2023-10-31T12:33:22;15.30;99.90
38239;DHT22;24035;48.900;9.188;2023-10-31T12:35:51;15.50;99.90
38239;DHT22;24035;48.900;9.188;2023-10-31T12:38:18;15.60;99.90
38239;DHT22;24035;48.900;9.188;2023-10-31T12:40:44;15.50;99.90
38239;DHT22;24035;48.900;9.188;2023-10-31T12:43:10;15.20;99.90
38239;DHT22;24035;48.900;9.188;2023-10-31T12:45:36;15.10;99.90
38239;DHT22;24035;48.900;9.188;2023-10-31T12:48:07;15.00;99.90
38239;DHT22;24035;48.900;9.188;2023-10-31T12:50:34;15.00;99.90
38239;DHT22;24035;48.900;9.188;2023-10-31T12:53:02;14.80;99.90
38239;DHT22;24035;48.900;9.188;2023-10-31T12:55:30;14.70;1.00
38239;DHT22;24035;48.900;9.188;2023-10-31T12:57:57;14.60;1.00
38239;DHT22;24035;48.900;9.188;2023-10-31T13:00:31;14.50;1.00
38239;DHT22;24035;48.900;9.188;2023-10-31T13:03:05;14.30;1.00
38239;DHT22;24035;48.900;9.188;2023-10-31T13:05:31;14.30;1.00
38239;DHT22;24035;48.900;9.188;2023-10-31T13:07:58;14.20;1.00
38239;DHT22;24035;48.900;9.188;2023-10-31T13:10:27;14.20;1.00
38239;DHT22;24035;48.900;9.188;2023-10-31T13:12:53;14.20;1.00
38239;DHT22;24035;48.900;9.188;2023-10-31T13:15:21;14.20;1.00
38239;DHT22;24035;48.900;9.188;2023-10-31T13:17:51;14.20;1.00
38239;DHT22;24035;48.900;9.188;2023-10-31T13:20:19;14.30;1.00
38239;DHT22;24035;48.900;9.188;2023-10-31T13:22:45;14.30;1.00
38239;DHT22;24035;48.900;9.188;2023-10-31T13:25:13;14.10;1.00
38239;DHT22;24035;48.900;9.188;2023-10-31T13:27:43;13.80;96.10
38239;DHT22;24035;48.900;9.188;2023-10-31T13:30:12;13.50;99.90
38239;DHT22;24035;48.900;9.188;2023-10-31T13:32:42;13.40;99.90
38239;DHT22;24035;48.900;9.188;2023-10-31T13:35:08;13.10;99.90
38239;DHT22;24035;48.900;9.188;2023-10-31T13:37:39;13.10;99.90
38239;DHT22;24035;48.900;9.188;2023-10-31T13:40:06;13.20;99.90
38239;DHT22;24035;48.900;9.188;2023-10-31T13:42:35;13.40;99.90
38239;DHT22;24035;48.900;9.188;2023-10-31T13:45:01;13.60;99.90
38239;DHT22;24035;48.900;9.188;2023-10-31T13:47:26;13.90;43.00
38239;DHT22;24035;48.900;9.188;2023-10-31T13:49:52;14.00;1.00
38239;DHT22;24035;48.900;9.188;2023-10-31T13:52:18;14.00;1.00
38239;DHT22;24035;48.900;9.188;2023-10-31T13:54:43;14.00;1.00
38239;DHT22;24035;48.900;9.188;2023-10-31T13:57:09;14.00;1.00
38239;DHT22;24035;48.900;9.188;2023-10-31T13:59:35;14.00;1.00
38239;DHT22;24035;48.900;9.188;2023-10-31T14:02:01;14.00;1.00
38239;DHT22;24035;48.900;9.188;2023-10-31T14:04:27;14.20;1.00
38239;DHT22;24035;48.900;9.188;2023-10-31T14:06:54;14.10;1.00
38239;DHT22;24035;48.900;9.188;2023-10-31T14:09:20;14.20;1.00
38239;DHT22;24035;48.900;9.188;2023-10-31T14:11:46;14.30;1.00
38239;DHT22;24035;48.900;9.188;2023-10-31T14:14:12;14.40;1.00
38239;DHT22;24035;48.900;9.188;2023-10-31T14:16:42;14.40;1.00
38239;DHT22;24035;48.900;9.188;2023-10-31T14:19:12;14.30;1.00
38239;DHT22;24035;48.900;9.188;2023-10-31T14:21:42;14.30;1.00
38239;DHT22;24035;48.900;9.188;2023-10-31T14:24:08;14.30;1.00
38239;DHT22;24035;48.900;9.188;2023-10-31T14:26:34;14.30;1.00
38239;DHT22;24035;48.900;9.188;2023-10-31T14:29:01;14.30;1.00
38239;DHT22;24035;48.900;9.188;2023-10-31T14:31:29;14.40;1.00
38239;DHT22;24035;48.900;9.188;2023-10-31T14:33:55;14.40;1.00
38239;DHT22;24035;48.900;9.188;2023-10-31T14:36:21;14.30;1.00
38239;DHT22;24035;48.900;9.188;2023-10-31T14:38:47;14.20;1.00
38239;DHT22;24035;48.900;9.188;2023-10-31T14:41:13;14.20;1.00
38239;DHT22;24035;48.900;9.188;2023-10-31T14:43:40;14.20;1.00
38239;DHT22;24035;48.900;9.188;2023-10-31T14:46:05;14.10;1.00
38239;DHT22;24035;48.900;9.188;2023-10-31T14:48:32;14.20;1.00
38239;DHT22;24035;48.900;9.188;2023-10-31T14:50:58;14.20;1.00
38239;DHT22;24035;48.900;9.188;2023-10-31T14:53:25;14.10;1.00
38239;DHT22;24035;48.900;9.188;2023-10-31T14:55:51;14.00;1.00
38239;DHT22;24035;48.900;9.188;2023-10-31T14:58:17;14.00;1.00
38239;DHT22;24035;48.900;9.188;2023-10-31T15:00:42;13.90;1.00
38239;DHT22;24035;48.900;9.188;2023-10-31T15:03:08;13.70;1.00
38239;DHT22;24035;48.900;9.188;2023-10-31T15:05:34;13.70;1.00
38239;DHT22;24035;48.900;9.188;2023-10-31T15:07:59;13.70;21.50
38239;DHT22;24035;48.900;9.188;2023-10-31T15:10:26;13.70;1.00
38239;DHT22;24035;48.900;9.188;2023-10-31T15:12:54;13.60;1.00
38239;DHT22;24035;48.900;9.188;2023-10-31T15:15:20;13.60;1.00
38239;DHT22;24035;48.900;9.188;2023-10-31T15:17:45;13.50;1.00
38239;DHT22;24035;48.900;9.188;2023-10-31T15:20:13;13.50;1.00
38239;DHT22;24035;48.900;9.188;2023-10-31T15:22:40;13.40;1.00
38239;DHT22;24035;48.900;9.188;2023-10-31T15:25:06;13.30;1.00
38239;DHT22;24035;48.900;9.188;2023-10-31T15:27:32;13.20;1.00
38239;DHT22;24035;48.900;9.188;2023-10-31T15:29:57;13.20;35.80
38239;DHT22;24035;48.900;9.188;2023-10-31T15:32:24;13.20;21.20
38239;DHT22;24035;48.900;9.188;2023-10-31T15:34:50;13.20;77.50
38239;DHT22;24035;48.900;9.188;2023-10-31T15:37:15;13.10;1.00
38239;DHT22;24035;48.900;9.188;2023-10-31T15:39:42;13.00;99.90
38239;DHT22;24035;48.900;9.188;2023-10-31T15:42:09;12.80;99.90